This is the latest recevied weather packets stored in our database for station/object KG4ZVW. If no packets are shown the sender has not sent any weather packets the latest 1 day(s).
| Time | Temp. | Humidity | Pressure | Rain* | Wind** | Luminosity | Snow |
|---|---|---|---|---|---|---|---|
| 1778021310 | 26.11° C | 61% | 1015 hPa | 0 mm | 2.68 m/s, 55° | 141 W/m² | - |
| 1778021006 | 26.11° C | 60% | 1015 hPa | 0 mm | 2.68 m/s, 58° | 151 W/m² | - |
| 1778020721 | 26.11° C | 59% | 1014.9 hPa | 0 mm | 2.68 m/s, 86° | 185 W/m² | - |
| 1778020414 | 26.11° C | 60% | 1014.9 hPa | 0 mm | 1.79 m/s, 68° | 204 W/m² | - |
| 1778020114 | 26.67° C | 58% | 1014.9 hPa | 0 mm | 2.68 m/s, 85° | 211 W/m² | - |
| 1778019809 | 26.67° C | 56% | 1015 hPa | 0 mm | 2.24 m/s, 60° | 195 W/m² | - |
| 1778019508 | 26.67° C | 54% | 1015 hPa | 0 mm | 1.34 m/s, 14° | 239 W/m² | - |
| 1778019205 | 26.67° C | 55% | 1015 hPa | 0 mm | 1.79 m/s, 63° | 262 W/m² | - |
| 1778018901 | 26.67° C | 55% | 1015 hPa | 0 mm | 2.68 m/s, 74° | 281 W/m² | - |
| 1778018613 | 26.67° C | 56% | 1015 hPa | 0 mm | 1.34 m/s, 74° | 308 W/m² | - |
| 1778018313 | 26.67° C | 57% | 1015 hPa | 0 mm | 3.58 m/s, 53° | 339 W/m² | - |
| 1778018008 | 27.22° C | 59% | 1014.9 hPa | 0 mm | 2.68 m/s, 105° | 352 W/m² | - |
| 1778017705 | 27.22° C | 59% | 1014.9 hPa | 0 mm | 3.13 m/s, 66° | 357 W/m² | - |
| 1778017420 | 27.22° C | 56% | 1014.9 hPa | 0 mm | 3.13 m/s, 44° | 380 W/m² | - |
| 1778017113 | 27.22° C | 57% | 1014.7 hPa | 0 mm | 0.89 m/s, 47° | 390 W/m² | - |
| 1778016811 | 27.22° C | 55% | 1014.7 hPa | 0 mm | 2.24 m/s, 109° | 396 W/m² | - |
| 1778016506 | 27.22° C | 54% | 1014.7 hPa | 0 mm | 1.34 m/s, 68° | 410 W/m² | - |
| 1778016203 | 27.22° C | 52% | 1014.7 hPa | 0 mm | 2.24 m/s, 66° | 445 W/m² | - |
| 1778015899 | 27.22° C | 53% | 1014.7 hPa | 0 mm | 2.68 m/s, 61° | 438 W/m² | - |
| 1778015599 | 27.22° C | 56% | 1014.7 hPa | 0 mm | 2.24 m/s, 71° | 483 W/m² | - |
| 1778015317 | 26.67° C | 56% | 1014.8 hPa | 0 mm | 3.58 m/s, 59° | 485 W/m² | - |
| 1778015012 | 27.22° C | 56% | 1014.8 hPa | 0 mm | 3.13 m/s, 68° | 450 W/m² | - |
| 1778014707 | 27.22° C | 57% | 1014.8 hPa | 0 mm | 4.02 m/s, 79° | 469 W/m² | - |
| 1778014403 | 27.22° C | 57% | 1014.7 hPa | 0 mm | 2.24 m/s, 107° | 432 W/m² | - |
| 1778014118 | 27.78° C | 55% | 1014.7 hPa | 0 mm | 2.24 m/s, 36° | 513 W/m² | - |
* Rain latest hour (hover to see other rain measurements)
** Current wind speed in m/s (hover to see current wind gust speed)